Los Trujillos, New Mexico
Current Conditions -  °F | °C
As of 5:52 AM on Friday 31 Oct 2014 (Local Time) from KABQ Reporting Station
Clear Clear  
Wind Chill: 53°   Ceiling: Unl
Heat Index: 53°   Visibility: 10mi
Dew Point: 26°   Wind: 20mph
Humidity: 35%   Direction: 80°E
Pressure: 30.34"   Gusts: NA
Location:  34.5756°N, 106.588°W
Report Text: KABQ 311152Z 08017KT 10SM CLR 12/M03 A3034 RMK AO2 SLP220 T01171033 10150 20117 53001
Loading
Personal Weather Stations






























Interactive Weather Map
Tropical Storm Tracking
New forecast layout! Learn more

10-Day Weather Forecast

Advertisements
Track Severe Weather on mobile